Terminal Aerodrome Forecast
Issued by NWS

Home | Current Version | Previous Version | Text Only | Print | Product List | Glossary On
Versions: 1 2 3 4 5 6 7 8 9 10 11 12 13 14 15 16 17 18 19 20 21 22 23 24 25 26 27 28 29 30
000
FTUS44 KOUN 251737
TAFLAW
TAF
KLAW 251737Z 2518/2618 19015G23KT P6SM SCT020 BKN040
      TEMPO 2523/2602 4SM -TSRA BR BKN020CB
     FM260200 17010KT P6SM SCT250
     FM260600 15011KT P6SM OVC015
     FM261200 19015G20KT P6SM BKN250=

USA.gov is the U.S. government's official web portal to all federal, state and local government web resources and services.